mai
16

MX FIM – GP DES USA : KEN ROCZEN INTOUCHABLE, CLÉMENT DESALLE DÉCROCHE LA PLAQUE DE LEADER



SAMEDI
MX1 – Free Practice – Classification
Pos Nr Rider Nat. Fed. Bike Bestlaptime in lap Diff. First Diff. Prev. Tot. Laps Speed

1 222 Cairoli, Antonio ITA FMI KTM 2:43.821 9 0:00.000 0:00.000 9 40.215
2 19 Philippaerts, David ITA FMI Yamaha 2:44.480 7 0:00.659 0:00.659 8 40.054
3 20 Aranda, Gregory FRA FFM Kawasaki 2:44.514 7 0:00.693 0:00.034 7 40.045
4 121 Boog, Xavier FRA FFM Kawasaki 2:45.755 7 0:01.934 0:01.241 9 39.745

5 777 Bobryshev, Evgeny RUS MFR Honda 2:46.168 5 0:02.347 0:00.413 8 39.647
6 11 Ramon, Steve BEL FMB Suzuki 2:46.572 7 0:02.751 0:00.404 8 39.55
7 6 Leok, Tanel EST EMF TM 2:46.633 8 0:02.812 0:00.061 8 39.536
8 7 Barragan, Jonathan ESP RFME Kawasaki 2:46.915 7 0:03.094 0:00.282 9 39.469
9 25 Desalle, Clement BEL FMB Suzuki 2:47.464 4 0:03.643 0:00.549 9 39.34
10 999 Goncalves, Rui POR FMP Honda 2:47.886 8 0:04.065 0:00.422 9 39.241
11 183 Frossard, Steven FRA FFM Yamaha 2:48.585 5 0:04.764 0:00.699 7 39.078
12 144 Craig, Christian USA AMA Honda 2:48.755 10 0:04.934 0:00.170 11 39.039
13 13 Monni, Manuel ITA FMI Honda 2:48.982 8 0:05.161 0:00.227 9 38.986
14 10 Boissiere, Anthony FRA FFM Yamaha 2:49.145 9 0:05.324 0:00.163 9 38.949
15 24 Simpson, Shaun GBR ACU Honda 2:50.582 6 0:06.761 0:01.437 8 38.621
16 35 Peick, Weston USA AMA Kawasaki 2:51.899 7 0:08.078 0:01.317 9 38.325
17 21 Dougan, Jason GBR ACU Yamaha 2:52.679 6 0:08.858 0:00.780 7 38.152
18 22 Strijbos, Kevin BEL FMB Suzuki 2:53.024 8 0:09.203 0:00.345 9 38.076
19 115 Campano Jimenez, Carlos ESP RFME Yamaha 2:53.302 7 0:09.481 0:00.278 8 38.015
20 2 Nagl, Maximilian GER DMSB KTM 2:53.358 7 0:09.537 0:00.056 9 38.002
21 61 Brakke, Herjan NED KNMV Yamaha 2:53.474 9 0:09.653 0:00.116 9 37.977
22 56 Borkenhagen, Sean USA AMA Kawasaki 2:54.807 7 0:10.986 0:01.333 8 37.687
23 67 Tiainen, Santtu FIN SML Kawasaki 2:55.994 8 0:12.173 0:01.187 9 37.433
24 49 Schmidinger, Günter AUT OeAMTC Honda 2:58.318 6 0:14.497 0:02.324 8 36.945
25 42 Sleeter, Michael USA AMA KTM 2:58.799 9 0:14.978 0:00.481 10 36.846
26 74 Steinbergs, Ivo LAT LAMSF Kawasaki 2:58.856 6 0:15.035 0:00.057 8 36.834
27 63 Sturm, Robert GER DMSB Kawasaki 3:03.644 9 0:19.823 0:04.788 9 35.874
28 184 Stapleton, Dennis USA AMA Yamaha 3:04.323 3 0:20.502 0:00.679 7 35.742
29 9 de Dycker, Ken BEL FMB Honda 3:06.109 5 0:22.288 0:01.786 6 35.399
30 14 de Reuver, Marc NED KNMV Yamaha 3:10.206 1 0:26.385 0:04.097 1 34.636
31 40 Aponte, Gino USA FMPR Honda 3:14.560 5 0:30.739 0:04.354 7 33.861
32 43 Gosselaar, Caleb USA AMA Suzuki 3:15.335 1 0:31.514 0:00.775 7 33.727
33 531 Galligari, Francesco ITA FMI Honda 3:44.515 5 1:00.694 0:29.180 5 29.343
34 39 Guarneri, Davide ITA FMI Kawasaki 27:42.709 1 24:58.888 23:58.194 1 3.962

MX2 – Free Practice – Classification
Pos Nr Rider Nat. Fed. Bike Bestlaptime in lap Diff. First Diff. Prev. Tot. Laps Speed

1 338 Osborne, Zachary USA ACU Yamaha 2:44.450 10 0:00.000 0:00.000 10 40.061
2 84 Herlings, Jeffrey NED KNMV KTM 2:44.705 9 0:00.255 0:00.255 9 39.999
3 94 Roczen, Ken GER DMSB KTM 2:45.608 8 0:01.158 0:00.903 10 39.781
4 99 Anstie, Max GBR AMA Kawasaki 2:46.863 11 0:02.413 0:01.255 11 39.481
5 131 Aubin, Nicolas FRA FFM KTM 2:47.163 9 0:02.713 0:00.300 9 39.411
6 100 Searle, Tommy GBR ACU Kawasaki 2:48.548 6 0:04.098 0:01.385 7 39.087
7 21 Paulin, Gautier FRA MCM Yamaha 2:48.632 8 0:04.182 0:00.084 8 39.067
8 7 Tonus, Arnaud SUI FMS Yamaha 2:49.037 5 0:04.587 0:00.405 8 38.974
9 1 Musquin, Marvin FRA AMA KTM 2:49.873 5 0:05.423 0:00.836 9 38.782

10 585 Baker, Travis USA AMA Honda 2:50.194 7 0:05.744 0:00.321 9 38.709
11 151 Kullas, Harri FIN SML Yamaha 2:50.509 10 0:06.059 0:00.315 10 38.637
12 911 Tixier, Jordi FRA FFM KTM 2:51.352 9 0:06.902 0:00.843 10 38.447
13 85 Champion, Scott USA AMA Honda 2:51.752 7 0:07.302 0:00.400 9 38.358
14 34 Roelants, Joel BEL FMB KTM 2:52.117 8 0:07.667 0:00.365 9 38.276
15 430 Charlier, Christophe FRA FFM Yamaha 2:52.260 7 0:07.810 0:00.143 9 38.245
16 249 Larsen, Nikolaj DEN DMU KTM 2:52.672 9 0:08.222 0:00.412 9 38.153
17 77 Lupino, Alessandro ITA FMI Husqvarna 2:53.080 7 0:08.630 0:00.408 7 38.063
18 388 Söderberg, Ludvig FIN SML Kawasaki 2:54.740 8 0:10.290 0:01.660 9 37.702
19 152 Petrov, Petar BUL BMF Yamaha 2:54.909 7 0:10.459 0:00.169 9 37.665
20 173 Guillod, Valentin SUI FMS KTM 2:56.359 6 0:11.909 0:01.450 8 37.356
21 628 Rossi, Joey USA AMA Yamaha 2:56.970 8 0:12.520 0:00.611 9 37.227
22 141 Cervellin, Andrea ITA FMI Husqvarna 2:57.296 7 0:12.846 0:00.326 8 37.158
23 166 Tedder, Dakota USA AMA Kawasaki 2:57.367 8 0:12.917 0:00.071 8 37.143
24 114 Booker, Jordan GBR ACU KTM 2:57.477 8 0:13.027 0:00.110 10 37.12
25 76 Rauchenecker, Pascal AUT OeAMTC KTM 2:58.345 7 0:13.895 0:00.868 10 36.94
26 128 Monticelli, Ivo ITA FMI Honda 2:59.424 7 0:14.974 0:01.079 8 36.717
27 550 Mitchell, Sean ZIM ZMSF Honda 3:02.291 5 0:17.841 0:02.867 7 36.14
28 27 Tapia, Tevin USA AMA KTM 3:02.705 7 0:18.255 0:00.414 8 36.058
29 66 Tombs, Lewis GBR ACU Honda 3:03.028 5 0:18.578 0:00.323 9 35.994
30 777 Zanoni, Swian BRA CBM Honda 3:05.446 7 0:20.996 0:02.418 8 35.525
31 505 Lipanovich, Sean USA AMA Suzuki 3:11.303 1 0:26.853 0:05.857 1 34.438
32 79 Oldekamp, Lars GER DMSB KTM 3:12.220 2 0:27.770 0:00.917 2 34.273
33 339 Thacker, Michael USA LAMSF Kawasaki 3:12.792 4 0:28.342 0:00.572 5 34.172
34 133 Tedder, Myles USA AMA Kawasaki 3:15.004 5 0:30.554 0:02.212 8 33.784
35 155 Ballari, Agustin ARG CAMOD Kawasaki 3:23.326 7 0:38.876 0:08.322 7 32.401
36 23 San Andres, Kenneth PHI NAMSSA Suzuki 3:39.253 2 0:54.803 0:15.927 4 30.047
37 23 San Andres, Kenneth PHI NAMSSA Suzuki 0:00.000 0 -3:15.550 -4:20.747 0 0
38 28 Raper, Deven USA AMA Kawasaki 0:00.000 0 -3:15.550 0:00.000 0 0
39 141 Cervellin, Andrea ITA FMI Husqvarna 0:00.000 0 -3:15.550 0:00.000 0 0
40 155 Ballari, Agustin ARG CAMOD Kawasaki 0:00.000 0 -3:15.550 0:00.000 0 0

MX1 – Pre-Qualifying Practice – Classification
Pos Nr Rider Nat. Fed. Bike Bestlaptime in lap Diff. First Diff. Prev. Tot. Laps Speed

1 20 Aranda, Gregory FRA FFM Kawasaki 2:45.656 4 0:00.000 0:00.000 6 39.769
2 11 Ramon, Steve BEL FMB Suzuki 2:45.723 5 0:00.067 0:00.067 6 39.753
3 2 Nagl, Maximilian GER DMSB KTM 2:45.839 6 0:00.183 0:00.116 7 39.725
4 25 Desalle, Clement BEL FMB Suzuki 2:46.214 2 0:00.558 0:00.375 4 39.636
5 183 Frossard, Steven FRA FFM Yamaha 2:46.252 5 0:00.596 0:00.038 7 39.627
6 999 Goncalves, Rui POR FMP Honda 2:46.480 8 0:00.824 0:00.228 8 39.572
7 121 Boog, Xavier FRA FFM Kawasaki 2:46.554 7 0:00.898 0:00.074 7 39.555
8 222 Cairoli, Antonio ITA FMI KTM 2:47.123 3 0:01.467 0:00.569 8 39.42
9 19 Philippaerts, David ITA FMI Yamaha 2:47.206 8 0:01.550 0:00.083 8 39.4
10 777 Bobryshev, Evgeny RUS MFR Honda 2:47.494 4 0:01.838 0:00.288 6 39.333
11 22 Strijbos, Kevin BEL FMB Suzuki 2:47.550 4 0:01.894 0:00.056 7 39.32
12 144 Craig, Christian USA AMA Honda 2:47.875 9 0:02.219 0:00.325 9 39.243
13 6 Leok, Tanel EST EMF TM 2:47.915 8 0:02.259 0:00.040 8 39.234
14 7 Barragan, Jonathan ESP RFME Kawasaki 2:48.705 8 0:03.049 0:00.790 8 39.05
15 24 Simpson, Shaun GBR ACU Honda 2:48.717 5 0:03.061 0:00.012 7 39.048
16 9 de Dycker, Ken BEL FMB Honda 2:48.883 6 0:03.227 0:00.166 7 39.009
17 10 Boissiere, Anthony FRA FFM Yamaha 2:50.164 6 0:04.508 0:01.281 8 38.716
18 13 Monni, Manuel ITA FMI Honda 2:51.063 8 0:05.407 0:00.899 8 38.512
19 115 Campano Jimenez, Carlos ESP RFME Yamaha 2:52.615 4 0:06.959 0:01.552 6 38.166
20 21 Dougan, Jason GBR ACU Yamaha 2:53.697 4 0:08.041 0:01.082 4 37.928
21 14 de Reuver, Marc NED KNMV Yamaha 2:54.207 8 0:08.551 0:00.510 8 37.817
22 61 Brakke, Herjan NED KNMV Yamaha 2:55.399 5 0:09.743 0:01.192 6 37.56
23 35 Peick, Weston USA AMA Kawasaki 2:55.767 6 0:10.111 0:00.368 7 37.481
24 56 Borkenhagen, Sean USA AMA Kawasaki 2:58.188 5 0:12.532 0:02.421 8 36.972
25 67 Tiainen, Santtu FIN SML Kawasaki 2:58.471 7 0:12.815 0:00.283 8 36.914
26 49 Schmidinger, Günter AUT OeAMTC Honda 2:59.112 5 0:13.456 0:00.641 7 36.781
27 42 Sleeter, Michael USA AMA KTM 2:59.265 6 0:13.609 0:00.153 9 36.75
28 74 Steinbergs, Ivo LAT LAMSF Kawasaki 3:02.411 6 0:16.755 0:03.146 7 36.116
29 63 Sturm, Robert GER DMSB Kawasaki 3:03.657 8 0:18.001 0:01.246 8 35.871
30 184 Stapleton, Dennis USA AMA Yamaha 3:04.143 3 0:18.487 0:00.486 7 35.777
31 43 Gosselaar, Caleb USA AMA Suzuki 3:07.235 7 0:21.579 0:03.092 7 35.186
32 39 Guarneri, Davide ITA FMI Kawasaki 3:08.556 2 0:22.900 0:01.321 2 34.939
33 40 Aponte, Gino USA FMPR Honda 3:12.274 6 0:26.618 0:03.718 7 34.264
34 531 Galligari, Francesco ITA FMI Honda 3:56.347 3 1:10.691 0:44.073 4 27

MX2 – Pre-Qualifying Practice – Classification
Pos Nr Rider Nat. Fed. Bike Bestlaptime in lap Diff. First Diff. Prev. Tot. Laps Speed

1 84 Herlings, Jeffrey NED KNMV KTM 2:46.208 6 0:00.000 0:00.000 6 39.637
2 338 Osborne, Zachary USA ACU Yamaha 2:47.256 7 0:01.048 0:01.048 7 39.389
3 94 Roczen, Ken GER DMSB KTM 2:47.285 6 0:01.077 0:00.029 8 39.382
4 100 Searle, Tommy GBR ACU Kawasaki 2:47.477 6 0:01.269 0:00.192 7 39.337
5 7 Tonus, Arnaud SUI FMS Yamaha 2:48.075 7 0:01.867 0:00.598 8 39.197
6 131 Aubin, Nicolas FRA FFM KTM 2:48.304 5 0:02.096 0:00.229 6 39.143
7 21 Paulin, Gautier FRA MCM Yamaha 2:48.400 6 0:02.192 0:00.096 7 39.121
8 1 Musquin, Marvin FRA AMA KTM 2:49.295 6 0:03.087 0:00.895 8 38.914

9 99 Anstie, Max GBR AMA Kawasaki 2:49.945 9 0:03.737 0:00.650 9 38.765
10 430 Charlier, Christophe FRA FFM Yamaha 2:50.898 8 0:04.690 0:00.953 8 38.549
11 585 Baker, Travis USA AMA Honda 2:51.380 4 0:05.172 0:00.482 8 38.441
12 34 Roelants, Joel BEL FMB KTM 2:51.530 7 0:05.322 0:00.150 7 38.407
13 151 Kullas, Harri FIN SML Yamaha 2:52.131 7 0:05.923 0:00.601 8 38.273
14 77 Lupino, Alessandro ITA FMI Husqvarna 2:53.260 5 0:07.052 0:01.129 6 38.024
15 85 Champion, Scott USA AMA Honda 2:53.467 7 0:07.259 0:00.207 7 37.978
16 911 Tixier, Jordi FRA FFM KTM 2:53.772 7 0:07.564 0:00.305 8 37.912
17 249 Larsen, Nikolaj DEN DMU KTM 2:54.138 5 0:07.930 0:00.366 8 37.832
18 152 Petrov, Petar BUL BMF Yamaha 2:56.317 5 0:10.109 0:02.179 7 37.365
19 388 Söderberg, Ludvig FIN SML Kawasaki 2:56.893 7 0:10.685 0:00.576 8 37.243
20 141 Cervellin, Andrea ITA FMI Husqvarna 2:57.006 2 0:10.798 0:00.113 7 37.219
21 76 Rauchenecker, Pascal AUT OeAMTC KTM 2:57.769 5 0:11.561 0:00.763 7 37.059
22 173 Guillod, Valentin SUI FMS KTM 2:58.157 4 0:11.949 0:00.388 7 36.979
23 79 Oldekamp, Lars GER DMSB KTM 2:58.786 6 0:12.578 0:00.629 7 36.849
24 114 Booker, Jordan GBR ACU KTM 2:59.024 5 0:12.816 0:00.238 7 36.8
25 128 Monticelli, Ivo ITA FMI Honda 2:59.830 5 0:13.622 0:00.806 8 36.635
26 628 Rossi, Joey USA AMA Yamaha 3:00.876 6 0:14.668 0:01.046 6 36.423
27 166 Tedder, Dakota USA AMA Kawasaki 3:00.969 6 0:14.761 0:00.093 8 36.404
28 505 Lipanovich, Sean USA AMA Suzuki 3:01.340 7 0:15.132 0:00.371 8 36.33
29 27 Tapia, Tevin USA AMA KTM 3:02.056 6 0:15.848 0:00.716 7 36.187
30 777 Zanoni, Swian BRA CBM Honda 3:03.191 6 0:16.983 0:01.135 7 35.962
31 550 Mitchell, Sean ZIM ZMSF Honda 3:04.856 6 0:18.648 0:01.665 6 35.639
32 66 Tombs, Lewis GBR ACU Honda 3:06.789 2 0:20.581 0:01.933 6 35.27
33 133 Tedder, Myles USA AMA Kawasaki 3:15.266 2 0:29.058 0:08.477 7 33.739
34 155 Ballari, Agustin ARG CAMOD Kawasaki 3:19.155 6 0:32.947 0:03.889 6 33.08
35 339 Thacker, Michael USA LAMSF Kawasaki 3:19.884 4 0:33.676 0:00.729 4 32.959
36 23 San Andres, Kenneth PHI NAMSSA Suzuki 0:00.000 0 -3:13.792 -4:40.116 0 0
37 28 Raper, Deven USA AMA Kawasaki 0:00.000 0 -3:13.792 0:00.000 0 0

MX2 – Qualifying Race – Classification
Pos Nr Rider Nat. Fed. Bike Time laps Diff. First Diff. Prev. Bestlaptime in lap Speed

1 94 Roczen, Ken GER DMSB KTM 28:18.726 9 0:00.000 0:00.000 2:50.053 4 38.741
2 84 Herlings, Jeffrey NED KNMV KTM 28:30.698 9 0:11.972 0:11.972 2:51.187 2 38.484
3 1 Musquin, Marvin FRA AMA KTM 28:36.926 9 0:18.200 0:06.228 2:53.180 2 38.041
4 99 Anstie, Max GBR AMA Kawasaki 28:46.288 9 0:27.562 0:09.362 2:53.189 2 38.039
5 21 Paulin, Gautier FRA MCM Yamaha 28:52.595 9 0:33.869 0:06.307 2:55.447 4 37.55
6 100 Searle, Tommy GBR ACU Kawasaki 28:57.468 9 0:38.742 0:04.873 2:52.340 8 38.227
7 911 Tixier, Jordi FRA FFM KTM 29:12.582 9 0:53.856 0:15.114 2:56.838 2 37.254
8 151 Kullas, Harri FIN SML Yamaha 29:14.381 9 0:55.655 0:01.799 2:56.700 6 37.284
9 585 Baker, Travis USA AMA Honda 29:21.074 9 1:02.348 0:06.693 2:57.457 4 37.124
10 34 Roelants, Joel BEL FMB KTM 29:24.718 9 1:05.992 0:03.644 2:58.568 6 36.894
11 430 Charlier, Christophe FRA FFM Yamaha 29:47.083 9 1:28.357 0:22.365 2:59.510 1 36.7
12 85 Champion, Scott USA AMA Honda 29:53.556 9 1:34.830 0:06.473 3:00.835 6 36.431
13 131 Aubin, Nicolas FRA FFM KTM 29:59.616 9 1:40.890 0:06.060 2:59.822 3 36.636
14 152 Petrov, Petar BUL BMF Yamaha 30:12.989 9 1:54.263 0:13.373 3:02.191 3 36.16
15 338 Osborne, Zachary USA ACU Yamaha 30:19.661 9 2:00.935 0:06.672 2:53.113 1 38.056
16 388 Söderberg, Ludvig FIN SML Kawasaki 30:20.218 9 2:01.492 0:00.557 3:01.781 1 36.241
17 76 Rauchenecker, Pascal AUT OeAMTC KTM 30:28.110 9 2:09.384 0:07.892 3:03.125 8 35.975
18 173 Guillod, Valentin SUI FMS KTM 30:32.122 9 2:13.396 0:04.012 3:03.067 3 35.987
19 77 Lupino, Alessandro ITA FMI Husqvarna 30:38.057 9 2:19.331 0:05.935 3:02.897 4 36.02
20 114 Booker, Jordan GBR ACU KTM 30:39.426 9 2:20.700 0:01.369 3:04.685 6 35.672
21 628 Rossi, Joey USA AMA Yamaha 30:40.813 9 2:22.087 0:01.387 3:03.816 2 35.84
22 27 Tapia, Tevin USA AMA KTM 31:29.628 9 3:10.902 0:48.815 3:10.712 5 34.544
23 550 Mitchell, Sean ZIM ZMSF Honda 31:32.526 9 3:13.800 0:02.898 3:08.969 5 34.863
24 128 Monticelli, Ivo ITA FMI Honda 28:21.493 8 1 lap 1 lap 3:08.987 2 34.86
25 166 Tedder, Dakota USA AMA Kawasaki 28:40.658 8 1 lap 0:19.165 3:08.144 4 35.016
26 777 Zanoni, Swian BRA CBM Honda 28:49.419 8 1 lap 0:08.761 3:13.373 4 34.069
27 505 Lipanovich, Sean USA AMA Suzuki 28:56.510 8 1 lap 0:07.091 3:14.346 7 33.898
28 133 Tedder, Myles USA AMA Kawasaki 29:33.531 8 1 lap 0:37.021 3:14.190 5 33.926
29 28 Raper, Deven USA AMA Kawasaki 30:10.077 8 1 lap 0:36.546 3:16.525 2 33.522
30 339 Thacker, Michael USA LAMSF Kawasaki 30:51.804 8 1 lap 0:41.727 3:25.125 2 32.117
31 155 Ballari, Agustin ARG CAMOD Kawasaki 31:17.846 8 1 lap 0:26.042 3:28.311 2 31.626
32 249 Larsen, Nikolaj DEN DMU KTM 15:32.923 4 5 laps 4 laps 3:00.161 1 36.567
33 23 San Andres, Kenneth PHI NAMSSA Suzuki 14:18.032 3 6 laps 1 lap 3:38.874 2 30.1
34 7 Tonus, Arnaud SUI FMS Yamaha 9:27.052 2 7 laps 1 lap 2:55.375 1 37.565
35 79 Oldekamp, Lars GER DMSB KTM 2:34.426 0 9 laps 2 laps 0:00.000 0 0
36 141 Cervellin, Andrea ITA FMI Husqvarna 2:35.205 0 9 laps 0:00.779 0:00.000 0 0

MX1 – Qualifying Race – Classification
Pos Nr Rider Nat. Fed. Bike Time laps Diff. First Diff. Prev. Bestlaptime in lap Speed

1 25 Desalle, Clement BEL FMB Suzuki 28:10.073 9 0:00.000 0:00.000 2:49.983 3 38.757
2 2 Nagl, Maximilian GER DMSB KTM 28:21.958 9 0:11.885 0:11.885 2:51.497 5 38.415
3 777 Bobryshev, Evgeny RUS MFR Honda 28:26.833 9 0:16.760 0:04.875 2:52.697 4 38.148
4 183 Frossard, Steven FRA FFM Yamaha 28:30.548 9 0:20.475 0:03.715 2:51.682 8 38.373
5 999 Goncalves, Rui POR FMP Honda 28:31.858 9 0:21.785 0:01.310 2:53.517 6 37.967
6 19 Philippaerts, David ITA FMI Yamaha 28:35.782 9 0:25.709 0:03.924 2:52.013 3 38.299
7 222 Cairoli, Antonio ITA FMI KTM 28:36.783 9 0:26.710 0:01.001 2:52.460 3 38.2
8 10 Boissiere, Anthony FRA FFM Yamaha 28:38.016 9 0:27.943 0:01.233 2:54.097 3 37.841
9 11 Ramon, Steve BEL FMB Suzuki 28:43.510 9 0:33.437 0:05.494 2:54.361 3 37.784
10 7 Barragan, Jonathan ESP RFME Kawasaki 28:50.492 9 0:40.419 0:06.982 2:53.945 5 37.874
11 6 Leok, Tanel EST EMF TM 28:52.924 9 0:42.851 0:02.432 2:54.527 4 37.748
12 22 Strijbos, Kevin BEL FMB Suzuki 28:54.236 9 0:44.163 0:01.312 2:53.781 6 37.91
13 24 Simpson, Shaun GBR ACU Honda 29:05.329 9 0:55.256 0:11.093 2:53.601 4 37.949
14 20 Aranda, Gregory FRA FFM Kawasaki 29:12.000 9 1:01.927 0:06.671 2:56.629 2 37.299
15 115 Campano Jimenez, Carlos ESP RFME Yamaha 29:43.283 9 1:33.210 0:31.283 2:58.264 4 36.956
16 21 Dougan, Jason GBR ACU Yamaha 29:54.109 9 1:44.036 0:10.826 2:59.202 4 36.763
17 13 Monni, Manuel ITA FMI Honda 29:56.885 9 1:46.812 0:02.776 2:59.950 4 36.61
18 61 Brakke, Herjan NED KNMV Yamaha 30:03.980 9 1:53.907 0:07.095 3:00.586 5 36.481
19 35 Peick, Weston USA AMA Kawasaki 30:13.881 9 2:03.808 0:09.901 2:58.487 2 36.91
20 49 Schmidinger, Günter AUT OeAMTC Honda 30:25.359 9 2:15.286 0:11.478 3:03.222 4 35.956
21 67 Tiainen, Santtu FIN SML Kawasaki 30:34.371 9 2:24.298 0:09.012 3:02.602 2 36.078
22 14 de Reuver, Marc NED KNMV Yamaha 30:47.888 9 2:37.815 0:13.517 3:03.706 4 35.862
23 56 Borkenhagen, Sean USA AMA Kawasaki 30:51.996 9 2:41.923 0:04.108 3:05.817 4 35.454
24 74 Steinbergs, Ivo LAT LAMSF Kawasaki 30:59.867 9 2:49.794 0:07.871 3:04.814 3 35.647
25 42 Sleeter, Michael USA AMA KTM 31:28.955 9 3:18.882 0:29.088 3:06.176 3 35.386
26 184 Stapleton, Dennis USA AMA Yamaha 28:40.370 8 1 lap 1 lap 3:08.631 2 34.925
27 63 Sturm, Robert GER DMSB Kawasaki 29:15.383 8 1 lap 0:35.013 3:14.125 2 33.937
28 40 Aponte, Gino USA FMPR Honda 30:08.557 8 1 lap 0:53.174 3:17.864 2 33.296
29 144 Craig, Christian USA AMA Honda 25:33.921 7 2 laps 1 lap 2:54.133 4 37.833
30 43 Gosselaar, Caleb USA AMA Suzuki 29:45.653 6 3 laps 1 lap 3:08.699 1 34.913
31 9 de Dycker, Ken BEL FMB Honda 16:59.272 5 4 laps 1 lap 2:53.085 4 38.062
32 39 Guarneri, Davide ITA FMI Kawasaki 12:33.069 3 6 laps 2 laps 2:56.825 2 37.257
33 121 Boog, Xavier FRA FFM Kawasaki 5:19.415 1 8 laps 2 laps 2:56.643 1 37.296
34 531 Galligari, Francesco ITA FMI Honda 3:10.379 0 9 laps 1 lap 0:00.000 0 0

DIMANCHE :

VMX – Race 1 – Classification
Pos Nr Rider Nat. Fed. Bike Time laps Diff. First Diff. Prev. Bestlaptime in lap Speed

1 15 Dubach, Doug USA AMA Yamaha 26:38.142 8 0:00.000 0:00.000 2:59.155 7 36.773
2 9 King, Darryll NZL MNZ Yamaha 26:40.862 8 0:02.720 0:02.720 2:57.846 5 37.043
3 1 Nilsson, Mats SWE SVEMO Yamaha 28:07.906 8 1:29.764 1:27.044 3:08.682 2 34.916
4 78 Hunt, Ryan RSA AMA Honda 29:06.365 8 2:28.223 0:58.459 3:17.480 1 33.36
5 40 Barda, Kevin USA AMA Honda 26:42.691 7 1 lap 1 lap 3:24.425 5 32.227
6 611 Wynne, Shawn USA AMA TM 26:55.151 7 1 lap 0:12.460 3:22.528 4 32.529
7 70 Camps, Alfredo ESP RFME Honda 27:03.272 7 1 lap 0:08.121 3:26.570 3 31.892
8 13 Kahro, Valdur EST EMF Honda 27:15.445 7 1 lap 0:12.173 3:27.551 2 31.742
9 68 Jackson, Lorry USA AMA Yamaha 27:28.591 7 1 lap 0:13.146 3:26.960 2 31.832
10 42 Jakobsson, Roger SWE SVEMO Yamaha 27:42.908 7 1 lap 0:14.317 3:29.914 3 31.384
11 46 House, Terry GBR ACU Yamaha 27:58.582 7 1 lap 0:15.674 3:32.904 5 30.944
12 199 Tedder, Matthew USA AMA Kawasaki 28:15.664 7 1 lap 0:17.082 3:29.688 6 31.418
13 28 Lewis, Phil GBR ACU KTM 28:19.067 7 1 lap 0:03.403 3:32.000 7 31.075
14 326 Foedish, Edgar USA AMA Yamaha 28:24.498 7 1 lap 0:05.431 3:32.979 4 30.933
15 67 Hickerson, Tim USA AMA Kawasaki 30:08.596 7 1 lap 1:44.098 3:45.510 1 29.214
16 88 Hellman, Kim FIN SML Honda 26:39.023 6 2 laps 1 lap 3:36.898 3 30.374
17 221 Caillouet, Sebastien FRA FFM Yamaha 27:11.649 6 2 laps 0:32.626 3:58.781 2 27.59
18 17 Sunol, Joaquim ESP RFME KTM 27:17.257 6 2 laps 0:05.608 3:59.259 6 27.535
19 111 Punkki, Juha FIN SML KTM 27:18.756 6 2 laps 0:01.499 3:58.536 4 27.618
20 66 Costa , Xavier ESP RFME KTM 27:30.574 6 2 laps 0:11.818 4:01.297 2 27.302
21 22 Fernigrini, Gustavo ARG AMA Kawasaki 27:35.886 6 2 laps 0:05.312 4:00.809 4 27.358
22 222 Medico, Jean-Pierre FRA FFM Yamaha 27:48.041 6 2 laps 0:12.155 4:03.989 6 27.001
23 82 Arzani, Giorgio ITA FMI Honda 27:48.489 6 2 laps 0:00.448 4:03.487 1 27.057
24 63 Sun, Chuck USA AMA KTM 15:21.219 3 5 laps 3 laps 3:54.695 1 28.07
25 95 Wheeler, Brian GBR ACU Kawasaki 9:16.629 2 6 laps 1 lap 3:20.969 1 32.781
26 224 Grandi Gian, Guido ITA FMI Honda 26:48.741 2 6 laps 17:32.112 4:55.445 1 22.299

VMX – Race 2 – Classification
Pos Nr Rider Nat. Fed. Bike Time laps Diff. First Diff. Prev. Bestlaptime in lap Speed

1 1 Nilsson, Mats SWE SVEMO Yamaha 30:21.272 8 0:00.000 0:00.000 3:25.563 4 32.049
2 9 King, Darryll NZL MNZ Yamaha 30:24.032 8 0:02.760 0:02.760 3:24.301 4 32.247
3 15 Dubach, Doug USA AMA Yamaha 32:23.351 8 2:02.079 1:59.319 3:31.044 2 31.216
4 95 Wheeler, Brian GBR ACU Kawasaki 31:28.379 7 1 lap 1 lap 3:53.443 1 28.221
5 42 Jakobsson, Roger SWE SVEMO Yamaha 32:00.127 7 1 lap 0:31.748 3:58.118 2 27.667
6 611 Wynne, Shawn USA AMA TM 32:19.747 7 1 lap 0:19.620 3:57.919 2 27.69
7 70 Camps, Alfredo ESP RFME Honda 32:53.180 7 1 lap 0:33.433 4:09.893 4 26.363
8 28 Lewis, Phil GBR ACU KTM 33:03.686 7 1 lap 0:10.506 4:10.975 1 26.25
9 68 Jackson, Lorry USA AMA Yamaha 33:40.757 7 1 lap 0:37.071 4:06.782 2 26.696
10 326 Foedish, Edgar USA AMA Yamaha 34:13.003 7 1 lap 0:32.246 4:17.111 3 25.623
11 40 Barda, Kevin USA AMA Honda 34:21.130 7 1 lap 0:08.127 4:10.293 6 26.321
12 88 Hellman, Kim FIN SML Honda 34:23.783 7 1 lap 0:02.653 4:13.296 2 26.009
13 78 Hunt, Ryan RSA AMA Honda 30:38.108 6 2 laps 1 lap 3:59.120 2 27.551
14 199 Tedder, Matthew USA AMA Kawasaki 30:41.207 6 2 laps 0:03.099 4:16.938 5 25.64
15 111 Punkki, Juha FIN SML KTM 32:31.823 6 2 laps 1:50.616 4:39.762 3 23.549
16 22 Fernigrini, Gustavo ARG AMA Kawasaki 35:10.399 6 2 laps 2:38.576 5:05.508 3 21.564
17 17 Sunol, Joaquim ESP RFME KTM 36:09.471 6 2 laps 0:59.072 4:51.339 1 22.613
18 82 Arzani, Giorgio ITA FMI Honda 30:25.891 5 3 laps 1 lap 5:00.476 2 21.925
19 66 Costa , Xavier ESP RFME KTM 30:27.148 5 3 laps 0:01.257 5:08.798 2 21.334
20 224 Grandi Gian, Guido ITA FMI Honda 30:46.220 5 3 laps 0:19.072 5:12.428 1 21.086
21 221 Caillouet, Sebastien FRA FFM Yamaha 31:24.796 5 3 laps 0:38.576 5:01.786 1 21.83
22 222 Medico, Jean-Pierre FRA FFM Yamaha 32:58.801 5 3 laps 1:34.005 5:25.511 1 20.239
23 67 Hickerson, Tim USA AMA Kawasaki 33:21.399 5 3 laps 0:22.598 4:44.745 2 23.136
24 13 Kahro, Valdur EST EMF Honda 11:13.291 2 6 laps 3 laps 3:59.466 2 27.511

VMX – Overall Classification
Pos Nr Rider Nat. Fed. Bike Race 1 Race 2 Total

1 1 Nilsson, Mats SWE SVEMO Yamaha 20 25 45
2 15 Dubach, Doug USA AMA Yamaha 25 20 45
3 9 King, Darryll NZL MNZ Yamaha 22 22 44
4 611 Wynne, Shawn USA AMA TM 15 15 30
5 70 Camps, Alfredo ESP RFME Honda 14 14 28
6 42 Jakobsson, Roger SWE SVEMO Yamaha 11 16 27
7 40 Barda, Kevin USA AMA Honda 16 10 26
8 78 Hunt, Ryan RSA AMA Honda 18 8 26
9 68 Jackson, Lorry USA AMA Yamaha 12 12 24
10 28 Lewis, Phil GBR ACU KTM 8 13 21
11 95 Wheeler, Brian GBR ACU Kawasaki 0 18 18
12 326 Foedish, Edgar USA AMA Yamaha 7 11 18
13 199 Tedder, Matthew USA AMA Kawasaki 9 7 16
14 88 Hellman, Kim FIN SML Honda 5 9 14
15 13 Kahro, Valdur EST EMF Honda 13 0 13
16 46 House, Terry GBR ACU Yamaha 10 0 10
17 111 Punkki, Juha FIN SML KTM 2 6 8
18 17 Sunol, Joaquim ESP RFME KTM 3 4 7
19 67 Hickerson, Tim USA AMA Kawasaki 6 0 6
20 22 Fernigrini, Gustavo ARG AMA Kawasaki 0 5 5
21 221 Caillouet, Sebastien FRA FFM Yamaha 4 0 4
22 82 Arzani, Giorgio ITA FMI Honda 0 3 3
23 66 Costa , Xavier ESP RFME KTM 1 2 3
24 224 Grandi Gian, Guido ITA FMI Honda 0 1 1
25 222 Medico, Jean-Pierre FRA FFM Yamaha 0 0 0
26 63 Sun, Chuck USA AMA KTM 0 0 0

VMX – Championship Classification
Pos Nr Rider Nat. Total NED USA LAT BEL GBR EUR

1 1 Nilsson, Mats SWE 95 25-25 20-25 - - - - - - - -
2 42 Jakobsson, R. SWE 48 8-13 11-16 - - - - - - - -
3 70 Camps, Alfredo ESP 48 11-9 14-14 - - - - - - - -
4 15 Dubach, Doug USA 45 - - 25-20 - - - - - - - -
5 13 Kahro, Valdur EST 45 16-16 13-0 - - - - - - - -
6 9 King, Darryll NZL 44 - - 22-22 - - - - - - - -
7 20 Bal, Pascal BEL 42 20-22 - - - - - - - - - -
8 178 Hofstede, K. NED 40 22-18 - - - - - - - - - -
9 32 Lheriteau, C. FRA 38 18-20 - - - - - - - - - -
10 88 Hellman, Kim FIN 33 7-12 5-9 - - - - - - - -
11 611 Wynne, Shawn USA 30 - - 15-15 - - - - - - - -
12 28 Lewis, Phil GBR 29 5-3 8-13 - - - - - - - -
13 78 Hunt, Ryan RSA 26 - - 18-8 - - - - - - - -
14 40 Barda, Kevin USA 26 - - 16-10 - - - - - - - -
15 10 Dijkstra, Koos NED 25 10-15 - - - - - - - - - -
16 60 Davids, Erik NED 25 15-10 - - - - - - - - - -
17 304 Woldendorp, P. NED 25 14-11 - - - - - - - - - -
18 68 Jackson, Lorry USA 24 - - 12-12 - - - - - - - -
19 46 House, Terry GBR 22 12-0 10-0 - - - - - - - -
20 53 Lombardo, V. ITA 20 13-7 - - - - - - - - - -..

MX1 – Warm-up – Classification
Pos Nr Rider Nat. Fed. Bike Bestlaptime in lap Diff. First Diff. Prev. Tot. Laps Speed

1 24 Simpson, Shaun GBR ACU Honda 3:03.264 4 0:00.000 0:00.000 5 35.948
2 183 Frossard, Steven FRA FFM Yamaha 3:03.646 3 0:00.382 0:00.382 5 35.873
3 7 Barragan, Jonathan ESP RFME Kawasaki 3:05.486 5 0:02.222 0:01.840 5 35.518
4 777 Bobryshev, Evgeny RUS MFR Honda 3:05.841 3 0:02.577 0:00.355 4 35.45
5 11 Ramon, Steve BEL FMB Suzuki 3:06.588 3 0:03.324 0:00.747 5 35.308
6 20 Aranda, Gregory FRA FFM Kawasaki 3:07.049 2 0:03.785 0:00.461 4 35.221
7 25 Desalle, Clement BEL FMB Suzuki 3:07.493 2 0:04.229 0:00.444 5 35.137
8 144 Craig, Christian USA AMA Honda 3:08.026 6 0:04.762 0:00.533 6 35.038
9 121 Boog, Xavier FRA FFM Kawasaki 3:08.192 3 0:04.928 0:00.166 5 35.007
10 9 de Dycker, Ken BEL FMB Honda 3:08.586 3 0:05.322 0:00.394 3 34.934
11 222 Cairoli, Antonio ITA FMI KTM 3:09.080 4 0:05.816 0:00.494 4 34.842
12 14 de Reuver, Marc NED KNMV Yamaha 3:09.423 4 0:06.159 0:00.343 4 34.779
13 19 Philippaerts, David ITA FMI Yamaha 3:09.673 5 0:06.409 0:00.250 5 34.733
14 999 Goncalves, Rui POR FMP Honda 3:09.936 2 0:06.672 0:00.263 5 34.685
15 39 Guarneri, Davide ITA FMI Kawasaki 3:10.425 5 0:07.161 0:00.489 5 34.596
16 13 Monni, Manuel ITA FMI Honda 3:12.291 3 0:09.027 0:01.866 4 34.261
17 115 Campano Jimenez, Carlos ESP RFME Yamaha 3:13.093 5 0:09.829 0:00.802 5 34.118
18 67 Tiainen, Santtu FIN SML Kawasaki 3:14.777 3 0:11.513 0:01.684 4 33.823
19 2 Nagl, Maximilian GER DMSB KTM 3:18.614 3 0:15.350 0:03.837 4 33.17
20 22 Strijbos, Kevin BEL FMB Suzuki 3:21.440 1 0:18.176 0:02.826 5 32.705
21 74 Steinbergs, Ivo LAT LAMSF Kawasaki 3:23.141 1 0:19.877 0:01.701 2 32.431
22 61 Brakke, Herjan NED KNMV Yamaha 3:25.115 3 0:21.851 0:01.974 4 32.119
23 49 Schmidinger, Günter AUT OeAMTC Honda 3:26.891 3 0:23.627 0:01.776 3 31.843
24 10 Boissiere, Anthony FRA FFM Yamaha 3:28.612 3 0:25.348 0:01.721 4 31.58
25 6 Leok, Tanel EST EMF TM 3:32.167 2 0:28.903 0:03.555 3 31.051
26 42 Sleeter, Michael USA AMA KTM 3:39.498 4 0:36.234 0:07.331 4 30.014
27 35 Peick, Weston USA AMA Kawasaki 3:43.802 1 0:40.538 0:04.304 1 29.437
28 43 Gosselaar, Caleb USA AMA Suzuki 3:44.752 1 0:41.488 0:00.950 4 29.312
29 184 Stapleton, Dennis USA AMA Yamaha 3:48.132 2 0:44.868 0:03.380 3 28.878
30 63 Sturm, Robert GER DMSB Kawasaki 4:14.439 2 1:11.175 0:26.307 2 25.892
31 531 Galligari, Francesco ITA FMI Honda 4:48.652 1 1:45.388 0:34.213 3 22.823
32 21 Dougan, Jason GBR ACU Yamaha 0:00.000 0 -4:56.736 -5:11.348 0 0

MX2 – Warm-up – Classification
Pos Nr Rider Nat. Fed. Bike Bestlaptime in lap Diff. First Diff. Prev. Tot. Laps Speed

1 99 Anstie, Max GBR AMA Kawasaki 2:58.120 6 0:00.000 0:00.000 6 36.986
2 100 Searle, Tommy GBR ACU Kawasaki 2:59.202 3 0:01.082 0:01.082 5 36.763
3 430 Charlier, Christophe FRA FFM Yamaha 3:00.052 4 0:01.932 0:00.850 4 36.589
4 1 Musquin, Marvin FRA AMA KTM 3:01.077 4 0:02.957 0:01.025 5 36.382

5 151 Kullas, Harri FIN SML Yamaha 3:04.467 5 0:06.347 0:03.390 5 35.714
6 131 Aubin, Nicolas FRA FFM KTM 3:04.602 3 0:06.482 0:00.135 5 35.688
7 34 Roelants, Joel BEL FMB KTM 3:05.034 4 0:06.914 0:00.432 5 35.604
8 94 Roczen, Ken GER DMSB KTM 3:05.314 2 0:07.194 0:00.280 4 35.55
9 585 Baker, Travis USA AMA Honda 3:05.523 4 0:07.403 0:00.209 6 35.51
10 7 Tonus, Arnaud SUI FMS Yamaha 3:06.073 4 0:07.953 0:00.550 5 35.405
11 911 Tixier, Jordi FRA FFM KTM 3:06.158 4 0:08.038 0:00.085 4 35.389
12 173 Guillod, Valentin SUI FMS KTM 3:06.451 4 0:08.331 0:00.293 5 35.334
13 152 Petrov, Petar BUL BMF Yamaha 3:06.820 5 0:08.700 0:00.369 5 35.264
14 84 Herlings, Jeffrey NED KNMV KTM 3:07.462 3 0:09.342 0:00.642 5 35.143
15 76 Rauchenecker, Pascal AUT OeAMTC KTM 3:09.206 3 0:11.086 0:01.744 5 34.819
16 85 Champion, Scott USA AMA Honda 3:10.374 3 0:12.254 0:01.168 3 34.606
17 249 Larsen, Nikolaj DEN DMU KTM 3:11.083 5 0:12.963 0:00.709 5 34.477
18 388 Söderberg, Ludvig FIN SML Kawasaki 3:11.989 4 0:13.869 0:00.906 4 34.314
19 21 Paulin, Gautier FRA MCM Yamaha 3:12.462 1 0:14.342 0:00.473 2 34.23
20 77 Lupino, Alessandro ITA FMI Husqvarna 3:12.875 3 0:14.755 0:00.413 3 34.157
21 114 Booker, Jordan GBR ACU KTM 3:13.492 5 0:15.372 0:00.617 5 34.048
22 338 Osborne, Zachary USA ACU Yamaha 3:17.247 2 0:19.127 0:03.755 2 33.4
23 128 Monticelli, Ivo ITA FMI Honda 3:19.666 4 0:21.546 0:02.419 5 32.995
24 141 Cervellin, Andrea ITA FMI Husqvarna 3:19.698 3 0:21.578 0:00.032 3 32.99
25 27 Tapia, Tevin USA AMA KTM 3:19.771 4 0:21.651 0:00.073 4 32.978
26 166 Tedder, Dakota USA AMA Kawasaki 3:20.692 3 0:22.572 0:00.921 3 32.826
27 550 Mitchell, Sean ZIM ZMSF Honda 3:28.877 2 0:30.757 0:08.185 2 31.54
28 79 Oldekamp, Lars GER DMSB KTM 3:36.646 1 0:38.526 0:07.769 4 30.409
29 133 Tedder, Myles USA AMA Kawasaki 3:39.291 1 0:41.171 0:02.645 3 30.042
30 339 Thacker, Michael USA LAMSF Kawasaki 3:58.114 1 0:59.994 0:18.823 2 27.667
31 155 Ballari, Agustin ARG CAMOD Kawasaki 4:01.155 2 1:03.035 0:03.041 3 27.319
32 23 San Andres, Kenneth PHI NAMSSA Suzuki 4:35.044 3 1:36.924 0:33.889 3 23.953
33 777 Zanoni, Swian BRA CBM Honda 0:00.000 0 -3:01.880 -5:24.956 0 0

1 ÈRE MANCHE MX2

Holeshot de Ken Roczen, chutes de Marvin Musquin et Nicolas Aubin au premier virage..

Chute d’Arnaud Tonus dans une série de whoops boueux..

Marvin Musquin fera un arrêt au stands pour remettre ses commandes en ordre suite à sa chute..

Bon après ces quelques « évènements » je ne Vous cache pas qu’on s’est un peu fait ch… tout le reste de cette première manche avec un Ken Roczen définitivement au dessus du lot.. Une remarque quand même, je trouve que Marvin Musquin baisse quand même vite les bras lorsque les éléments ne lui semblent pas « totalement » en sa faveur.. À suivre sur l’Outdoor..

MX2 – Grand Prix Race 1 – Classification
Pos Nr Rider Nat. Fed. Bike Time laps Diff. First Diff. Prev. Bestlaptime in lap Speed

1 94 Roczen, Ken GER DMSB KTM 43:17.168 13 0:00.000 0:00.000 3:04.596 6 35.689
2 84 Herlings, Jeffrey NED KNMV KTM 43:30.494 13 0:13.326 0:13.326 3:06.877 3 35.253
3 99 Anstie, Max GBR AMA Kawasaki 44:05.550 13 0:48.382 0:35.056 3:07.851 10 35.07
4 151 Kullas, Harri FIN SML Yamaha 44:18.623 13 1:01.455 0:13.073 3:10.519 11 34.579
5 100 Searle, Tommy GBR ACU Kawasaki 44:24.852 13 1:07.684 0:06.229 3:08.662 8 34.92
6 21 Paulin, Gautier FRA MCM Yamaha 44:27.953 13 1:10.785 0:03.101 3:09.734 10 34.722
7 7 Tonus, Arnaud SUI FMS Yamaha 45:10.008 13 1:52.840 0:42.055 3:10.261 12 34.626
8 430 Charlier, Christophe FRA FFM Yamaha 45:14.019 13 1:56.851 0:04.011 3:10.072 3 34.661

9 338 Osborne, Zachary USA ACU Yamaha 45:33.362 13 2:16.194 0:19.343 3:09.119 10 34.835
10 585 Baker, Travis USA AMA Honda 45:44.976 13 2:27.808 0:11.614 3:12.799 9 34.17
11 152 Petrov, Petar BUL BMF Yamaha 46:27.913 13 3:10.745 0:42.937 3:15.882 3 33.632
12 131 Aubin, Nicolas FRA FFM KTM 46:33.571 13 3:16.403 0:05.658 3:14.150 11 33.933
13 911 Tixier, Jordi FRA FFM KTM 46:39.814 13 3:22.646 0:06.243 3:16.011 11 33.61
14 34 Roelants, Joel BEL FMB KTM 43:27.729 12 1 lap 1 lap 3:17.510 11 33.355
15 77 Lupino, Alessandro ITA FMI Husqvarna 43:40.997 12 1 lap 0:13.268 3:17.278 5 33.394
16 249 Larsen, Nikolaj DEN DMU KTM 43:46.825 12 1 lap 0:05.828 3:19.081 6 33.092
17 173 Guillod, Valentin SUI FMS KTM 44:16.820 12 1 lap 0:29.995 3:22.479 1 32.537
18 76 Rauchenecker, Pascal AUT OeAMTC KTM 44:37.392 12 1 lap 0:20.572 3:23.974 9 32.298
19 1 Musquin, Marvin FRA AMA KTM 44:48.649 12 1 lap 0:11.257 3:12.370 9 34.247
20 27 Tapia, Tevin USA AMA KTM 46:30.838 12 1 lap 1:42.189 3:32.156 4 31.053
21 388 Söderberg, Ludvig FIN SML Kawasaki 46:31.690 12 1 lap 0:00.852 3:26.063 12 31.971
22 550 Mitchell, Sean ZIM ZMSF Honda 43:17.418 11 2 laps 1 lap 3:34.808 4 30.669
23 128 Monticelli, Ivo ITA FMI Honda 43:26.660 11 2 laps 0:09.242 3:32.934 3 30.939
24 166 Tedder, Dakota USA AMA Kawasaki 43:36.157 11 2 laps 0:09.497 3:35.458 7 30.577
25 505 Lipanovich, Sean USA AMA Suzuki 44:04.942 11 2 laps 0:28.785 3:37.296 9 30.318
26 628 Rossi, Joey USA AMA Yamaha 44:42.894 11 2 laps 0:37.952 3:33.990 7 30.786
27 114 Booker, Jordan GBR ACU KTM 45:02.906 11 2 laps 0:20.012 3:21.071 7 32.765
28 777 Zanoni, Swian BRA CBM Honda 45:57.701 11 2 laps 0:54.795 3:39.028 8 30.078
29 133 Tedder, Myles USA AMA Kawasaki 46:03.513 11 2 laps 0:05.812 3:38.396 7 30.165
30 79 Oldekamp, Lars GER DMSB KTM 44:46.412 10 3 laps 1 lap 3:33.092 7 30.916
31 155 Ballari, Agustin ARG CAMOD Kawasaki 45:49.508 10 3 laps 1:03.096 4:05.135 10 26.875
32 339 Thacker, Michael USA LAMSF Kawasaki 27:06.913 6 7 laps 4 laps 3:54.313 1 28.116
33 28 Raper, Deven USA AMA Kawasaki 21:52.981 5 8 laps 1 lap 3:37.945 5 30.228
34 23 San Andres, Kenneth PHI NAMSSA Suzuki 21:08.785 4 9 laps 1 lap 4:09.372 1 26.418
35 141 Cervellin, Andrea ITA FMI Husqvarna 6:27.568 1 12 laps 3 laps 3:30.245 1 31.335

1 ÈRE MANCHE MX1

Holeshot d’Anthony Boissiere..

Chute de Steve Ramon dans une descente à 3 min de la fin de manche (il abandonnera..) et abandon de Ken De Dycker sur casse mécanique..

Bon inutile de Vous dire qu’on s’est également fait chier (désolé je suis vulgaire mais ça vient du coeur..) lors de cette première manche MX1..

MX1 – Grand Prix Race 1 – Classification
Pos Nr Rider Nat. Fed. Bike Time laps Diff. First Diff. Prev. Bestlaptime in lap Speed

1 25 Desalle, Clement BEL FMB Suzuki 41:30.376 13 0:00.000 0:00.000 2:58.457 4 36.916
2 222 Cairoli, Antonio ITA FMI KTM 41:33.284 13 0:02.908 0:02.908 2:58.555 4 36.896
3 2 Nagl, Maximilian GER DMSB KTM 42:15.849 13 0:45.473 0:42.565 3:00.861 8 36.426
4 22 Strijbos, Kevin BEL FMB Suzuki 42:21.600 13 0:51.224 0:05.751 3:01.367 2 36.324
5 19 Philippaerts, David ITA FMI Yamaha 42:27.979 13 0:57.603 0:06.379 3:01.976 4 36.203
6 777 Bobryshev, Evgeny RUS MFR Honda 42:33.478 13 1:03.102 0:05.499 3:02.959 2 36.008
7 10 Boissiere, Anthony FRA FFM Yamaha 42:50.858 13 1:20.482 0:17.380 3:04.021 4 35.8
8 144 Craig, Christian USA AMA Honda 42:51.791 13 1:21.415 0:00.933 3:04.583 4 35.691
9 7 Barragan, Jonathan ESP RFME Kawasaki 43:07.119 13 1:36.743 0:15.328 3:02.008 7 36.196
10 183 Frossard, Steven FRA FFM Yamaha 43:18.798 13 1:48.422 0:11.679 3:01.925 7 36.213
11 21 Dougan, Jason GBR ACU Yamaha 43:21.580 13 1:51.204 0:02.782 3:04.584 4 35.691
12 999 Goncalves, Rui POR FMP Honda 43:27.212 13 1:56.836 0:05.632 3:05.626 4 35.491
13 39 Guarneri, Davide ITA FMI Kawasaki 43:29.306 13 1:58.930 0:02.094 3:04.831 6 35.643
14 121 Boog, Xavier FRA FFM Kawasaki 43:30.256 13 1:59.880 0:00.950 3:05.024 9 35.606
15 6 Leok, Tanel EST EMF TM 43:31.669 13 2:01.293 0:01.413 3:03.817 6 35.84
16 24 Simpson, Shaun GBR ACU Honda 43:32.418 13 2:02.042 0:00.749 3:04.716 13 35.666
17 20 Aranda, Gregory FRA FFM Kawasaki 44:09.734 13 2:39.358 0:37.316 3:07.433 12 35.149
18 115 Campano Jimenez, Carlos ESP RFME Yamaha 41:36.809 12 1 lap 1 lap 3:09.152 5 34.829
19 13 Monni, Manuel ITA FMI Honda 42:14.275 12 1 lap 0:37.466 3:10.568 3 34.57
20 61 Brakke, Herjan NED KNMV Yamaha 42:46.923 12 1 lap 0:32.648 3:16.418 2 33.541
21 56 Borkenhagen, Sean USA AMA Kawasaki 43:23.371 12 1 lap 0:36.448 3:18.710 2 33.154
22 67 Tiainen, Santtu FIN SML Kawasaki 43:46.956 12 1 lap 0:23.585 3:17.852 5 33.298
23 74 Steinbergs, Ivo LAT LAMSF Kawasaki 44:21.553 12 1 lap 0:34.597 3:19.528 3 33.018
24 49 Schmidinger, Günter AUT OeAMTC Honda 39:43.122 11 2 laps 1 lap 3:17.793 7 33.308
25 63 Sturm, Robert GER DMSB Kawasaki 42:22.417 11 2 laps 2:39.295 3:28.231 3 31.638
26 43 Gosselaar, Caleb USA AMA Suzuki 44:05.910 11 2 laps 1:43.493 3:33.078 4 30.918
27 184 Stapleton, Dennis USA AMA Yamaha 42:06.865 10 3 laps 1 lap 3:30.100 3 31.356
28 11 Ramon, Steve BEL FMB Suzuki 30:12.906 9 4 laps 1 lap 3:02.479 4 36.103
29 9 de Dycker, Ken BEL FMB Honda 27:31.089 8 5 laps 1 lap 3:02.239 6 36.15
30 14 de Reuver, Marc NED KNMV Yamaha 26:07.134 7 6 laps 1 lap 3:14.756 1 33.827
31 35 Peick, Weston USA AMA Kawasaki 22:18.560 6 7 laps 1 lap 3:11.739 4 34.359
32 42 Sleeter, Michael USA AMA KTM 24:31.778 6 7 laps 2:13.218 3:21.616 2 32.676
33 40 Aponte, Gino USA FMPR Honda 22:28.495 5 8 laps 1 lap 3:37.116 3 30.343
34 531 Galligari, Francesco ITA FMI Honda 17:53.838 3 10 laps 2 laps 4:05.637 1 26.82

2 ÈME MANCHE MX2

Holeshot de Ken Roczen..

Abandon de Gautier Paulin sur casse moteur et d’Arnaud Tonus..

MX2 – Grand Prix Race 2 – Classification
Pos Nr Rider Nat. Fed. Bike Time laps Diff. First Diff. Prev. Bestlaptime in lap Speed

1 94 Roczen, Ken GER DMSB KTM 42:56.413 14 0:00.000 0:00.000 2:52.284 1 38.239
2 84 Herlings, Jeffrey NED KNMV KTM 43:33.152 14 0:36.739 0:36.739 2:52.830 6 38.118
3 100 Searle, Tommy GBR ACU Kawasaki 43:57.418 14 1:01.005 0:24.266 2:55.762 7 37.483
4 338 Osborne, Zachary USA ACU Yamaha 44:19.247 14 1:22.834 0:21.829 2:56.953 5 37.23
5 99 Anstie, Max GBR AMA Kawasaki 44:23.953 14 1:27.540 0:04.706 2:57.179 7 37.183
6 1 Musquin, Marvin FRA AMA KTM 44:37.359 14 1:40.946 0:13.406 2:57.078 5 37.204
7 131 Aubin, Nicolas FRA FFM KTM 45:03.601 14 2:07.188 0:26.242 2:59.143 7 36.775
8 430 Charlier, Christophe FRA FFM Yamaha 45:09.006 14 2:12.593 0:05.405 3:00.565 4 36.485

9 34 Roelants, Joel BEL FMB KTM 45:09.740 14 2:13.327 0:00.734 3:00.656 5 36.467
10 911 Tixier, Jordi FRA FFM KTM 45:25.836 14 2:29.423 0:16.096 3:01.082 13 36.381
11 151 Kullas, Harri FIN SML Yamaha 45:31.011 14 2:34.598 0:05.175 2:59.363 4 36.73
12 85 Champion, Scott USA AMA Honda 43:15.795 13 1 lap 1 lap 3:04.198 7 35.766
13 76 Rauchenecker, Pascal AUT OeAMTC KTM 43:39.797 13 1 lap 0:24.002 3:05.154 2 35.581
14 77 Lupino, Alessandro ITA FMI Husqvarna 43:43.221 13 1 lap 0:03.424 3:06.394 3 35.344
15 249 Larsen, Nikolaj DEN DMU KTM 43:58.309 13 1 lap 0:15.088 3:04.124 6 35.78
16 585 Baker, Travis USA AMA Honda 43:59.796 13 1 lap 0:01.487 2:59.975 9 36.605
17 173 Guillod, Valentin SUI FMS KTM 44:02.872 13 1 lap 0:03.076 3:08.966 1 34.863
18 152 Petrov, Petar BUL BMF Yamaha 44:13.092 13 1 lap 0:10.220 3:04.431 3 35.721
19 141 Cervellin, Andrea ITA FMI Husqvarna 44:32.753 13 1 lap 0:19.661 3:06.608 3 35.304
20 166 Tedder, Dakota USA AMA Kawasaki 44:35.972 13 1 lap 0:03.219 3:08.438 4 34.961
21 388 Söderberg, Ludvig FIN SML Kawasaki 44:53.155 13 1 lap 0:17.183 3:09.343 7 34.794
22 79 Oldekamp, Lars GER DMSB KTM 45:08.604 13 1 lap 0:15.449 3:09.238 6 34.813
23 777 Zanoni, Swian BRA CBM Honda 45:29.339 13 1 lap 0:20.735 3:14.402 10 33.889
24 628 Rossi, Joey USA AMA Yamaha 45:33.431 13 1 lap 0:04.092 3:10.699 1 34.547
25 505 Lipanovich, Sean USA AMA Suzuki 45:34.061 13 1 lap 0:00.630 3:13.708 3 34.01
26 27 Tapia, Tevin USA AMA KTM 43:54.458 12 2 laps 1 lap 3:13.891 1 33.978
27 133 Tedder, Myles USA AMA Kawasaki 45:01.160 12 2 laps 1:06.702 3:22.557 2 32.524
28 155 Ballari, Agustin ARG CAMOD Kawasaki 43:44.088 11 3 laps 1 lap 3:33.166 2 30.905
29 339 Thacker, Michael USA LAMSF Kawasaki 44:31.188 11 3 laps 0:47.100 3:29.465 2 31.452
30 550 Mitchell, Sean ZIM ZMSF Honda 19:21.330 5 9 laps 6 laps 3:14.448 3 33.881
31 128 Monticelli, Ivo ITA FMI Honda 12:15.989 2 12 laps 3 laps 3:29.735 2 31.411
32 21 Paulin, Gautier FRA MCM Yamaha 2:22.235 0 14 laps 2 laps 0:00.000 0 0
33 7 Tonus, Arnaud SUI FMS Yamaha 0:00.000 0 14 laps -3:37.765 0:00.000 0 0

MX2 – GP Classification
Pos Nr Rider Nat. Fed. Bike Race 1 Race 2 Total

1 94 Roczen, Ken GER DMSB KTM 25 25 50
2 84 Herlings, Jeffrey NED KNMV KTM 22 22 44
3 100 Searle, Tommy GBR ACU Kawasaki 16 20 36
4 99 Anstie, Max GBR AMA Kawasaki 20 16 36
5 338 Osborne, Zachary USA ACU Yamaha 12 18 30
6 151 Kullas, Harri FIN SML Yamaha 18 10 28
7 430 Charlier, Christophe FRA FFM Yamaha 13 13 26
8 131 Aubin, Nicolas FRA FFM KTM 9 14 23

9 34 Roelants, Joel BEL FMB KTM 7 12 19
10 911 Tixier, Jordi FRA FFM KTM 8 11 19
11 1 Musquin, Marvin FRA AMA KTM 2 15 17

12 585 Baker, Travis USA AMA Honda 11 5 16
13 21 Paulin, Gautier FRA MCM Yamaha 15 0 15
14 7 Tonus, Arnaud SUI FMS Yamaha 14 0 14

15 77 Lupino, Alessandro ITA FMI Husqvarna 6 7 13
16 152 Petrov, Petar BUL BMF Yamaha 10 3 13
17 76 Rauchenecker, Pascal AUT OeAMTC KTM 3 8 11
18 249 Larsen, Nikolaj DEN DMU KTM 5 6 11
19 85 Champion, Scott USA AMA Honda 0 9 9
20 173 Guillod, Valentin SUI FMS KTM 4 4 8
21 141 Cervellin, Andrea ITA FMI Husqvarna 0 2 2
22 166 Tedder, Dakota USA AMA Kawasaki 0 1 1
23 27 Tapia, Tevin USA AMA KTM 1 0 1
24 388 Söderberg, Ludvig FIN SML Kawasaki 0 0 0
25 79 Oldekamp, Lars GER DMSB KTM 0 0 0
26 777 Zanoni, Swian BRA CBM Honda 0 0 0
27 628 Rossi, Joey USA AMA Yamaha 0 0 0
28 505 Lipanovich, Sean USA AMA Suzuki 0 0 0
29 133 Tedder, Myles USA AMA Kawasaki 0 0 0
30 155 Ballari, Agustin ARG CAMOD Kawasaki 0 0 0
31 339 Thacker, Michael USA LAMSF Kawasaki 0 0 0
32 550 Mitchell, Sean ZIM ZMSF Honda 0 0 0
33 128 Monticelli, Ivo ITA FMI Honda 0 0 0
34 114 Booker, Jordan GBR ACU KTM 0 0 0
35 28 Raper, Deven USA AMA Kawasaki 0 0 0
36 23 San Andres, Kenneth PHI NAMSSA Suzuki 0 0 0

MX2 – World Championship Classification
Pos Nr Rider Nat. Total BUL NED USA BRA FRA POR ESP SWE GER LAT BEL CZE GBR EUR ITA

1 94 Roczen, Ken GER 144 25-25 22-22 25-25 - - - - - - - - - - - - - - - - - - - - - - - -
2 84 Herlings, J. NED 130 16-20 25-25 22-22 - - - - - - - - - - - - - - - - - - - - - - - -
3 100 Searle, Tommy GBR 120 22-22 20-20 16-20 - - - - - - - - - - - - - - - - - - - - - - - -
4 338 Osborne, Z. USA 90 14-18 15-13 12-18 - - - - - - - - - - - - - - - - - - - - - - - -
5 99 Anstie, Max GBR 87 13-15 11-12 20-16 - - - - - - - - - - - - - - - - - - - - - - - -
6 7 Tonus, Arnaud SUI 81 18-13 18-18 14-0 - - - - - - - - - - - - - - - - - - - - - - - -
7 21 Paulin, G. FRA 80 20-14 16-15 15-0 - - - - - - - - - - - - - - - - - - - - - - - -
8 151 Kullas, Harri FIN 74 11-7 14-14 18-10 - - - - - - - - - - - - - - - - - - - - - - - -
9 34 Roelants, Joel BEL 67 10-9 13-16 7-12 - - - - - - - - - - - - - - - - - - - - - - - -
10 430 Charlier, C. FRA 62 7-11 7-11 13-13 - - - - - - - - - - - - - - - - - - - - - - - -
11 131 Aubin, Nicolas FRA 59 12-12 12-0 9-14 - - - - - - - - - - - - - - - - - - - - - - - -
12 911 Tixier, Jordi FRA 39 8-3 3-6 8-11 - - - - - - - - - - - - - - - - - - - - - - - -

13 89 van Horebeek, J. BEL 31 15-16 - - - - - - - - - - - - - - - - - - - - - - - - - - - -
14 25 Coldenhoff, G. NED 31 6-8 9-8 - - - - - - - - - - - - - - - - - - - - - - - - - -
15 249 Larsen, N. DEN 30 0-0 10-9 5-6 - - - - - - - - - - - - - - - - - - - - - - - -
16 77 Lupino, A. ITA 27 1-10 0-3 6-7 - - - - - - - - - - - - - - - - - - - - - - - -
17 152 Petrov, Petar BUL 26 3-0 0-10 10-3 - - - - - - - - - - - - - - - - - - - - - - - -
18 76 Rauchenecker, P. AUT 25 5-5 4-0 3-8 - - - - - - - - - - - - - - - - - - - - - - - -
19 17 Butron Oliva, A. ESP 21 4-2 8-7 - - - - - - - - - - - - - - - - - - - - - - - - - -
20 1 Musquin, M. FRA 17 - - - - 2-15 - - - - - - - - - - - - - - - - - - - - - - - -
21 585 Baker, Travis USA 16 - - - - 11-5 - - - - - - - - - - - - - - - - - - - - - - - -
22 91 Karro, Matiss LAT 15 9-6 - - - - - - - - - - - - - - - - - - - - - - - - - - - -
23 173 Guillod, V. SUI 10 0-1 1-0 4-4 - - - - - - - - - - - - - - - - - - - - - - - -
24 85 Champion, S. USA 9 - - - - 0-9 - - - - - - - - - - - - - - - - - - - - - - - -
25 590 Triest, Nick BEL 8 0-4 0-4 - - - - - - - - - - - - - - - - - - - - - - - - - -
26 388 Söderberg, L. FIN 7 0-0 2-5 0-0 - - - - - - - - - - - - - - - - - - - - - - - -
27 55 Kras, Mike NED 6 - - 6-0 - - - - - - - - - - - - - - - - - - - - - - - - - -
28 79 Oldekamp, Lars GER 5 0-0 5-0 0-0 - - - - - - - - - - - - - - - - - - - - - - - -
29 195 Justs, Roberts LAT 2 0-0 0-2 - - - - - - - - - - - - - - - - - - - - - - - - - -
30 33 Lieber, Julien BEL 2 2-0 0-0 - - - - - - - - - - - - - - - - - - - - - - - - - -
31 141 Cervellin, A. ITA 2 - - - - 0-2 - - - - - - - - - - - - - - - - - - - - - - - -
32 102 Smitka, Petr CZE 1 0-0 0-1 - - - - - - - - - - - - - - - - - - - - - - - - - -
33 166 Tedder, Dakota USA 1 - - - - 0-1 - - - - - - - - - - - - - - - - - - - - - - - -
34 27 Tapia, Tevin USA 1 - - - - 1-0 - - - - - - - - - - - - - - - - - - - - - - - -

2 ÈME MANCHE MX1

Holeshot de Kevin Strijbos, puis chute de Steven Frossard avec Antonio Cairoli.. Nouvelle chute de Frossard à 2 tours de la fin de la manche..

MX1 – Grand Prix Race 2 – Classification
Pos Nr Rider Nat. Fed. Bike Time laps Diff. First Diff. Prev. Bestlaptime in lap Speed

1 25 Desalle, Clement BEL FMB Suzuki 43:24.372 14 0:00.000 0:00.000 2:53.994 3 37.863
2 2 Nagl, Maximilian GER DMSB KTM 43:25.933 14 0:01.561 0:01.561 2:54.415 4 37.772
3 777 Bobryshev, Evgeny RUS MFR Honda 43:35.887 14 0:11.515 0:09.954 2:55.625 3 37.512
4 999 Goncalves, Rui POR FMP Honda 43:37.259 14 0:12.887 0:01.372 2:55.649 8 37.507
5 22 Strijbos, Kevin BEL FMB Suzuki 43:44.480 14 0:20.108 0:07.221 2:55.181 6 37.607
6 24 Simpson, Shaun GBR ACU Honda 43:54.493 14 0:30.121 0:10.013 2:56.274 10 37.374
7 11 Ramon, Steve BEL FMB Suzuki 43:58.432 14 0:34.060 0:03.939 2:55.792 7 37.476
8 7 Barragan, Jonathan ESP RFME Kawasaki 43:59.922 14 0:35.550 0:01.490 2:57.058 5 37.208
9 19 Philippaerts, David ITA FMI Yamaha 44:17.166 14 0:52.794 0:17.244 2:56.008 8 37.43
10 121 Boog, Xavier FRA FFM Kawasaki 44:20.634 14 0:56.262 0:03.468 2:56.788 6 37.265
11 222 Cairoli, Antonio ITA FMI KTM 44:24.165 14 0:59.793 0:03.531 2:55.102 3 37.624
12 10 Boissiere, Anthony FRA FFM Yamaha 44:38.392 14 1:14.020 0:14.227 2:56.512 8 37.323
13 144 Craig, Christian USA AMA Honda 44:50.007 14 1:25.635 0:11.615 2:58.625 2 36.882
14 20 Aranda, Gregory FRA FFM Kawasaki 44:53.063 14 1:28.691 0:03.056 2:59.803 1 36.64
15 6 Leok, Tanel EST EMF TM 44:54.768 14 1:30.396 0:01.705 2:57.862 9 37.04
16 39 Guarneri, Davide ITA FMI Kawasaki 45:51.000 14 2:26.628 0:56.232 2:58.949 2 36.815
17 21 Dougan, Jason GBR ACU Yamaha 46:01.246 14 2:36.874 0:10.246 3:00.582 3 36.482
18 35 Peick, Weston USA AMA Kawasaki 46:06.019 14 2:41.647 0:04.773 3:02.445 8 36.11
19 115 Campano Jimenez, Carlos ESP RFME Yamaha 46:08.364 14 2:43.992 0:02.345 3:00.487 14 36.501
20 9 de Dycker, Ken BEL FMB Honda 41:02.398 13 1 lap 1 lap 2:54.570 7 37.738
21 67 Tiainen, Santtu FIN SML Kawasaki 43:38.877 13 1 lap 2:36.479 3:06.333 5 35.356
22 56 Borkenhagen, Sean USA AMA Kawasaki 43:47.192 13 1 lap 0:08.315 3:06.580 8 35.309
23 183 Frossard, Steven FRA FFM Yamaha 44:03.478 13 1 lap 0:16.286 2:55.278 9 37.586
24 49 Schmidinger, Günter AUT OeAMTC Honda 44:18.818 13 1 lap 0:15.340 3:07.977 2 35.047
25 74 Steinbergs, Ivo LAT LAMSF Kawasaki 44:48.699 13 1 lap 0:29.881 3:07.707 2 35.097
26 184 Stapleton, Dennis USA AMA Yamaha 46:48.031 13 1 lap 1:59.332 3:16.681 4 33.496
27 63 Sturm, Robert GER DMSB Kawasaki 43:46.430 12 2 laps 1 lap 3:18.930 3 33.117
28 13 Monni, Manuel ITA FMI Honda 30:50.604 9 5 laps 3 laps 3:03.222 5 35.956
29 43 Gosselaar, Caleb USA AMA Suzuki 13:15.426 3 11 laps 6 laps 3:24.971 2 32.141
30 531 Galligari, Francesco ITA FMI Honda 7:10.128 1 13 laps 2 laps 3:57.892 1 27.693
31 61 Brakke, Herjan NED KNMV Yamaha 3:11.387 0 14 laps 1 lap 0:00.000 0 0

MX1 – GP Classification
Pos Nr Rider Nat. Fed. Bike Race 1 Race 2 Total

1 25 Desalle, Clement BEL FMB Suzuki 25 25 50
2 2 Nagl, Maximilian GER DMSB KTM 20 22 42
3 777 Bobryshev, Evgeny RUS MFR Honda 15 20 35
4 22 Strijbos, Kevin BEL FMB Suzuki 18 16 34
5 222 Cairoli, Antonio ITA FMI KTM 22 10 32
6 19 Philippaerts, David ITA FMI Yamaha 16 12 28
7 999 Goncalves, Rui POR FMP Honda 9 18 27
8 7 Barragan, Jonathan ESP RFME Kawasaki 12 13 25
9 10 Boissiere, Anthony FRA FFM Yamaha 14 9 23
10 144 Craig, Christian USA AMA Honda 13 8 21
11 24 Simpson, Shaun GBR ACU Honda 5 15 20
12 121 Boog, Xavier FRA FFM Kawasaki 7 11 18
13 11 Ramon, Steve BEL FMB Suzuki 0 14 14
14 21 Dougan, Jason GBR ACU Yamaha 10 4 14
15 39 Guarneri, Davide ITA FMI Kawasaki 8 5 13
16 6 Leok, Tanel EST EMF TM 6 6 12
17 20 Aranda, Gregory FRA FFM Kawasaki 4 7 11
18 183 Frossard, Steven FRA FFM Yamaha 11 0 11

19 115 Campano Jimenez, Carlos ESP RFME Yamaha 3 2 5
20 35 Peick, Weston USA AMA Kawasaki 0 3 3
21 13 Monni, Manuel ITA FMI Honda 2 0 2
22 9 de Dycker, Ken BEL FMB Honda 0 1 1
23 61 Brakke, Herjan NED KNMV Yamaha 1 0 1
24 67 Tiainen, Santtu FIN SML Kawasaki 0 0 0
25 56 Borkenhagen, Sean USA AMA Kawasaki 0 0 0
26 49 Schmidinger, Günter AUT OeAMTC Honda 0 0 0
27 74 Steinbergs, Ivo LAT LAMSF Kawasaki 0 0 0
28 184 Stapleton, Dennis USA AMA Yamaha 0 0 0
29 63 Sturm, Robert GER DMSB Kawasaki 0 0 0
30 43 Gosselaar, Caleb USA AMA Suzuki 0 0 0
31 531 Galligari, Francesco ITA FMI Honda 0 0 0
32 14 de Reuver, Marc NED KNMV Yamaha 0 0 0
33 42 Sleeter, Michael USA AMA KTM 0 0 0
34 40 Aponte, Gino USA FMPR Honda 0 0 0

MX1 – World Championship Classification
Pos Nr Rider Nat. Total BUL NED USA BRA FRA POR ESP SWE GER LAT BEL CZE GBR EUR ITA

1 25 Desalle, C. BEL 128 22-25 16-15 25-25 - - - - - - - - - - - - - - - - - - - - - - - -
2 2 Nagl, M. GER 122 20-15 20-25 20-22 - - - - - - - - - - - - - - - - - - - - - - - -
3 222 Cairoli, A. ITA 104 14-11 25-22 22-10 - - - - - - - - - - - - - - - - - - - - - - - -
4 183 Frossard, S. FRA 96 25-22 22-16 11-0 - - - - - - - - - - - - - - - - - - - - - - - -
5 19 Philippaerts, D. ITA 91 18-7 18-20 16-12 - - - - - - - - - - - - - - - - - - - - - - - -
6 999 Goncalves, Rui POR 89 13-16 15-18 9-18 - - - - - - - - - - - - - - - - - - - - - - - -
7 777 Bobryshev, E. RUS 87 9-18 11-14 15-20 - - - - - - - - - - - - - - - - - - - - - - - -
8 7 Barragan, J. ESP 78 15-20 7-11 12-13 - - - - - - - - - - - - - - - - - - - - - - - -
9 22 Strijbos, K. BEL 68 12-14 5-3 18-16 - - - - - - - - - - - - - - - - - - - - - - - -
10 39 Guarneri, D. ITA 58 16-10 9-10 8-5 - - - - - - - - - - - - - - - - - - - - - - - -
11 11 Ramon, Steve BEL 56 11-9 13-9 0-14 - - - - - - - - - - - - - - - - - - - - - - - -
12 121 Boog, Xavier FRA 52 10-13 4-7 7-11 - - - - - - - - - - - - - - - - - - - - - - - -
13 10 Boissiere, A. FRA 51 6-8 6-8 14-9 - - - - - - - - - - - - - - - - - - - - - - - -

14 6 Leok, Tanel EST 48 0-12 12-12 6-6 - - - - - - - - - - - - - - - - - - - - - - - -
15 24 Simpson, Shaun GBR 38 8-5 1-4 5-15 - - - - - - - - - - - - - - - - - - - - - - - -
16 9 de Dycker, Ken BEL 32 0-4 14-13 0-1 - - - - - - - - - - - - - - - - - - - - - - - -
17 21 Dougan, Jason GBR 26 7-0 3-2 10-4 - - - - - - - - - - - - - - - - - - - - - - - -
18 144 Craig, C. USA 21 - - - - 13-8 - - - - - - - - - - - - - - - - - - - - - - - -
19 115 Campano Jimenez, C. ESP 16 5-6 0-0 3-2 - - - - - - - - - - - - - - - - - - - - - - - -
20 14 de Reuver, M. NED 13 3-0 10-0 0-0 - - - - - - - - - - - - - - - - - - - - - - - -
21 20 Aranda, G. FRA 11 - - - - 4-7 - - - - - - - - - - - - - - - - - - - - - - - -
22 50 Barr, Martin GBR 8 - - 8-0 - - - - - - - - - - - - - - - - - - - - - - - - - -
23 37 Krestinov, G. EST 6 - - 0-6 - - - - - - - - - - - - - - - - - - - - - - - - - -
24 52 Walkner, M. AUT 6 0-1 0-5 - - - - - - - - - - - - - - - - - - - - - - - - - -
25 45 Leonce, Loic FRA 6 4-2 0-0 - - - - - - - - - - - - - - - - - - - - - - - - - -
26 49 Schmidinger, G. AUT 4 1-3 0-0 0-0 - - - - - - - - - - - - - - - - - - - - - - - -
27 35 Peick, Weston USA 3 - - - - 0-3 - - - - - - - - - - - - - - - - - - - - - - - -
28 13 Monni, Manuel ITA 2 - - - - 2-0 - - - - - - - - - - - - - - - - - - - - - - - -
29 387 Martens, Y. BEL 2 2-0 0-0 - - - - - - - - - - - - - - - - - - - - - - - - - -
30 101 Townley, B. NZL 2 - - 2-0 - - - - - - - - - - - - - - - - - - - - - - - - - -
31 67 Tiainen, S. FIN 1 - - 0-1 0-0 - - - - - - - - - - - - - - - - - - - - - - - -
32 61 Brakke, Herjan NED 1 0-0 0-0 1-0 - - - - - - - - - - - - - - - - - - - - - - - -

(Photos : Ray Archer/KTM & Suzuki Racing)

A voir aussi :

Le commentaires sont fermés.